KFFL

Details ICAO KFFL
Name FAIRFIELD MUNI
Region United States
Timezone America/Chicago (UTC-6.0)
Plans Departing 7
Arriving 12
Stats Elevation 799 ft / 244 m (AMSL)
Location 41.053538° -91.982016°
Runways 2
Magnetic Variation 0.415° W
Sunrise 2017-12-17 13:28:48 UTC / 2017-12-17 07:28:48 Local
Sunset 2017-12-17 22:42:17 UTC / 2017-12-17 16:42:17 Local
Advertisement - Login to hide

Runways

ID Width Length Bearing (true) Bearing (mag) Surface Threshold Offset Overrun Length
08 165 ft / 50 m 2,445 ft / 745 m 86.43° 86.85° Dirt 0 ft / 0 m 0 ft / 0 m
18 75 ft / 23 m 4,007 ft / 1,221 m 179.64° 180.06° Asphalt 0 ft / 0 m 0 ft / 0 m
26 165 ft / 50 m 2,445 ft / 745 m 266.43° 266.85° Dirt 0 ft / 0 m 0 ft / 0 m
36 75 ft / 23 m 4,007 ft / 1,221 m 359.64° 0.06° Asphalt 0 ft / 0 m 0 ft / 0 m

Map

Weather


0- 5 10 15 20 25 30 35+ Temperature / ° C

Clouds and Precipitation
Forecast for 2017-12-17 12:00 UTC. Updated an hour ago

Ground ~20,000 ft ~40,000 ft Winds

METAR

KFFL 170815Z AUTO 06004KT 10SM CLR M00/M04 A2997 RMK AO2 PWINO

TAF

Not found

Frequencies

Recorded 132.02 MHz AWOS 3
Unicom 122.70 MHz CTAF/UNICOM
Warning: Do not use this data for real-world aviation or navigation. No guarantee of current accuracy is given.